Time;durP1;ratioP1;P1;durP2;ratioP2;P2;SDS_P1;SDS_P2;PMS_P1;PMS_P2;Temp;Humidity;BMP_temperature;BMP_pressure;BME280_temperature;BME280_humidity;BME280_pressure;Samples;Min_cycle;Max_cycle;Signal;HPM_P1;HPM_P2
2022/05/26 00:02:24;;;;;;;13.07;9.90;;;14.70;99.90;;;;;;5087113;28;20039;-70
2022/05/26 00:04:50;;;;;;;14.55;10.10;;;14.60;99.90;;;;;;5086332;28;20044;-70
2022/05/26 00:07:16;;;;;;;13.73;9.60;;;14.60;99.90;;;;;;5086541;28;21142;-70
2022/05/26 00:09:43;;;;;;;13.95;10.00;;;14.60;99.90;;;;;;5089295;28;20052;-69
2022/05/26 00:12:10;;;;;;;14.23;9.53;;;14.70;99.90;;;;;;5087829;28;20071;-69
2022/05/26 00:14:37;;;;;;;14.10;9.98;;;14.70;99.90;;;;;;5090762;28;20040;-72
2022/05/26 00:17:03;;;;;;;14.77;9.57;;;14.60;99.90;;;;;;5089089;28;20426;-71
2022/05/26 00:19:28;;;;;;;15.10;10.05;;;14.60;99.90;;;;;;5088390;28;20044;-70
2022/05/26 00:21:54;;;;;;;16.70;10.80;;;14.70;99.90;;;;;;5092732;28;20043;-70
2022/05/26 00:24:20;;;;;;;16.45;10.65;;;14.70;99.90;;;;;;5087794;28;20044;-71
2022/05/26 00:26:46;;;;;;;15.75;11.05;;;14.70;99.90;;;;;;5089115;28;20123;-70
2022/05/26 00:29:12;;;;;;;17.25;10.52;;;14.70;99.90;;;;;;5090313;28;20043;-70
2022/05/26 00:31:38;;;;;;;16.00;11.07;;;14.70;99.90;;;;;;5089631;28;20063;-70
2022/05/26 00:34:04;;;;;;;16.58;10.77;;;14.70;99.90;;;;;;5088770;28;20492;-70
2022/05/26 00:36:39;;;;;;;17.00;11.27;;;14.70;99.90;;;;;;5085876;28;20470;-69
2022/05/26 00:39:06;;;;;;;15.27;10.80;;;14.70;99.90;;;;;;5087676;28;20040;-70
2022/05/26 00:41:32;;;;;;;17.48;11.45;;;14.60;99.90;;;;;;5098786;28;20043;-70
2022/05/26 00:43:58;;;;;;;16.48;10.80;;;14.60;99.90;;;;;;5091174;28;20089;-69
2022/05/26 00:46:28;;;;;;;17.02;12.30;;;14.60;99.90;;;;;;5086108;28;20511;-70
2022/05/26 00:48:58;;;;;;;21.20;12.70;;;14.50;99.90;;;;;;5089527;28;20130;-69
2022/05/26 00:51:29;;;;;;;19.33;12.65;;;14.50;99.90;;;;;;5089037;28;20757;-71
2022/05/26 00:53:59;;;;;;;19.95;13.65;;;14.50;99.90;;;;;;5087117;28;20032;-71
2022/05/26 00:56:44;;;;;;;18.25;13.07;;;14.50;99.90;;;;;;5085163;28;20090;-70
2022/05/26 00:59:31;;;;;;;19.13;13.00;;;14.50;99.90;;;;;;5082186;28;20051;-70
2022/05/26 01:01:58;;;;;;;18.75;13.68;;;14.40;99.90;;;;;;5088259;28;20036;-70
2022/05/26 01:04:30;;;;;;;21.45;13.95;;;14.40;99.90;;;;;;5088738;28;20060;-71
2022/05/26 01:07:14;;;;;;;18.88;13.40;;;14.40;99.90;;;;;;5085231;28;20040;-73
2022/05/26 01:09:39;;;;;;;18.75;14.05;;;14.40;99.90;;;;;;5081026;28;20048;-70
2022/05/26 01:12:05;;;;;;;17.42;13.68;;;14.40;99.90;;;;;;5087568;28;20040;-71
2022/05/26 01:14:34;;;;;;;20.30;14.35;;;14.40;99.90;;;;;;5084216;28;20093;-71
2022/05/26 01:17:28;;;;;;;19.80;15.18;;;14.40;99.90;;;;;;5086228;28;20388;-71
2022/05/26 01:20:03;;;;;;;20.92;14.15;;;14.40;99.90;;;;;;5070733;28;20152;-70
2022/05/26 01:23:06;;;;;;;21.73;13.63;;;14.30;99.90;;;;;;5072261;28;20472;-70
2022/05/26 01:25:51;;;;;;;21.95;14.75;;;14.40;99.90;;;;;;5086854;28;20047;-69
2022/05/26 01:28:51;;;;;;;20.15;14.45;;;14.40;99.90;;;;;;5087552;28;20055;-70
2022/05/26 01:31:38;;;;;;;24.25;15.85;;;14.40;99.90;;;;;;5089661;28;20079;-70
2022/05/26 01:34:28;;;;;;;24.10;14.98;;;14.30;99.90;;;;;;5088184;28;20051;-70
2022/05/26 01:37:31;;;;;;;26.10;15.90;;;14.30;99.90;;;;;;5086089;28;20050;-72
2022/05/26 01:40:05;;;;;;;27.33;16.00;;;14.30;99.90;;;;;;5090015;28;20040;-71
2022/05/26 01:42:36;;;;;;;25.25;16.77;;;14.40;99.90;;;;;;5089572;28;20036;-71
2022/05/26 01:45:13;;;;;;;26.77;16.85;;;14.40;99.90;;;;;;5086198;28;20052;-70
2022/05/26 01:47:51;;;;;;;24.25;16.80;;;14.40;99.90;;;;;;5075956;28;20058;-69
2022/05/26 01:50:21;;;;;;;25.67;16.63;;;14.30;99.90;;;;;;5083543;28;20048;-70
2022/05/26 01:53:03;;;;;;;23.42;16.77;;;14.40;99.90;;;;;;5089178;28;20088;-71
2022/05/26 01:55:34;;;;;;;23.48;17.50;;;14.40;99.90;;;;;;5088212;28;20056;-71
2022/05/26 01:58:37;;;;;;;27.88;17.40;;;14.40;99.90;;;;;;5086159;28;20047;-70
2022/05/26 02:01:08;;;;;;;26.35;17.42;;;14.30;99.90;;;;;;5089149;28;20117;-71
2022/05/26 02:03:38;;;;;;;25.75;17.92;;;14.30;99.90;;;;;;5087735;28;20075;-70
2022/05/26 02:06:13;;;;;;;23.88;17.60;;;14.30;99.90;;;;;;5093479;28;20082;-69
2022/05/26 02:08:49;;;;;;;25.48;17.67;;;14.30;99.90;;;;;;5086176;28;20047;-70
2022/05/26 02:11:20;;;;;;;31.88;17.67;;;14.30;99.90;;;;;;5090271;28;20127;-71
2022/05/26 02:14:10;;;;;;;30.00;17.52;;;14.30;99.90;;;;;;5084119;28;20089;-70
2022/05/26 02:17:04;;;;;;;27.10;17.50;;;14.30;99.90;;;;;;5089904;28;20104;-69
2022/05/26 02:19:41;;;;;;;28.40;17.70;;;14.30;99.90;;;;;;5088159;28;20036;-70
2022/05/26 02:22:30;;;;;;;27.75;17.35;;;14.30;99.90;;;;;;5086154;28;20406;-70
2022/05/26 02:25:16;;;;;;;27.20;19.02;;;14.30;99.90;;;;;;5087850;28;20123;-72
2022/05/26 02:27:42;;;;;;;30.25;17.70;;;14.30;99.90;;;;;;5076479;28;20052;-70
2022/05/26 02:30:09;;;;;;;29.80;18.50;;;14.30;99.90;;;;;;5083417;28;20043;-71
2022/05/26 02:32:41;;;;;;;31.38;19.02;;;14.30;99.90;;;;;;5084810;28;20044;-70
2022/05/26 02:35:12;;;;;;;27.02;18.17;;;14.30;99.90;;;;;;5085089;28;20558;-70
2022/05/26 02:37:40;;;;;;;27.40;17.92;;;14.30;99.90;;;;;;5086060;28;20486;-70
2022/05/26 02:40:07;;;;;;;28.55;18.50;;;14.30;99.90;;;;;;5081802;28;20027;-71
2022/05/26 02:42:35;;;;;;;35.17;19.42;;;14.30;99.90;;;;;;5093266;28;20499;-70
2022/05/26 02:45:01;;;;;;;32.72;20.00;;;14.30;99.90;;;;;;5085321;28;20047;-71
2022/05/26 02:48:00;;;;;;;25.83;18.35;;;14.30;99.90;;;;;;5085817;28;20434;-70
2022/05/26 02:51:00;;;;;;;30.60;19.45;;;14.30;99.90;;;;;;5079074;28;20055;-70
2022/05/26 02:53:42;;;;;;;30.17;19.20;;;14.30;99.90;;;;;;5085187;28;20055;-69
2022/05/26 02:56:56;;;;;;;33.92;19.05;;;14.30;99.90;;;;;;5085549;28;20050;-70
2022/05/26 02:59:29;;;;;;;30.83;19.05;;;14.30;99.90;;;;;;5069807;28;20055;-70
2022/05/26 03:02:00;;;;;;;33.83;20.40;;;14.30;99.90;;;;;;5087219;28;20055;-70
2022/05/26 03:04:34;;;;;;;35.53;19.75;;;14.30;99.90;;;;;;5095885;28;20043;-70
2022/05/26 03:07:04;;;;;;;33.22;19.73;;;14.30;99.90;;;;;;5083684;28;20062;-71
2022/05/26 03:09:34;;;;;;;31.60;19.77;;;14.30;99.90;;;;;;5077347;28;20169;-70
2022/05/26 03:12:00;;;;;;;36.13;19.75;;;14.40;99.90;;;;;;5086737;28;20078;-70
2022/05/26 03:14:26;;;;;;;33.60;20.35;;;14.40;99.90;;;;;;5095578;28;20085;-70
2022/05/26 03:16:52;;;;;;;40.13;20.38;;;14.40;99.90;;;;;;5089365;28;20075;-73
2022/05/26 03:19:19;;;;;;;31.20;20.73;;;14.30;99.90;;;;;;5085970;28;20494;-71
2022/05/26 03:21:45;;;;;;;33.42;19.65;;;14.30;99.90;;;;;;5080125;28;20379;-71
2022/05/26 03:24:11;;;;;;;37.45;20.98;;;14.30;99.90;;;;;;5090112;28;20043;-71
2022/05/26 03:26:37;;;;;;;37.08;20.15;;;14.40;99.90;;;;;;5085381;28;20055;-71
2022/05/26 03:29:04;;;;;;;34.17;20.13;;;14.30;99.90;;;;;;5085936;28;20056;-70
2022/05/26 03:31:31;;;;;;;40.22;21.77;;;14.30;99.90;;;;;;5084656;28;20048;-70
2022/05/26 03:42:12;;;;;;;37.83;20.33;;;14.30;99.90;;;;;;5091783;28;20040;-70
2022/05/26 03:44:38;;;;;;;31.98;19.40;;;14.30;99.90;;;;;;5091172;28;20380;-70
2022/05/26 03:47:05;;;;;;;33.53;19.52;;;14.30;99.90;;;;;;5087715;28;20051;-72
2022/05/26 03:49:31;;;;;;;32.72;19.42;;;14.30;99.90;;;;;;5089856;28;20132;-70
2022/05/26 03:51:57;;;;;;;41.13;21.77;;;14.30;99.90;;;;;;5087550;28;20171;-71
2022/05/26 03:54:24;;;;;;;34.45;20.00;;;14.30;99.90;;;;;;5089622;28;20085;-70
2022/05/26 03:56:50;;;;;;;38.65;20.23;;;14.30;99.90;;;;;;5091567;28;20109;-69
2022/05/26 03:59:16;;;;;;;40.45;20.60;;;14.30;99.90;;;;;;5090364;28;20108;-71
2022/05/26 04:01:41;;;;;;;32.85;19.27;;;14.30;99.90;;;;;;5089669;28;20136;-71
2022/05/26 04:04:07;;;;;;;34.53;18.77;;;14.30;99.90;;;;;;5089060;28;20090;-70
2022/05/26 04:06:33;;;;;;;34.90;19.92;;;14.30;99.90;;;;;;5089717;28;20063;-70
2022/05/26 04:08:59;;;;;;;34.03;18.05;;;14.30;99.90;;;;;;5086737;28;20136;-71
2022/05/26 04:11:25;;;;;;;35.92;19.38;;;14.30;99.90;;;;;;5089914;28;20388;-71
2022/05/26 04:13:52;;;;;;;37.05;18.98;;;14.40;99.90;;;;;;5090928;28;20785;-71
2022/05/26 04:16:18;;;;;;;43.55;18.27;;;14.40;99.90;;;;;;5084712;28;20043;-70
2022/05/26 04:18:44;;;;;;;40.05;19.63;;;14.40;99.90;;;;;;5090773;28;20039;-70
2022/05/26 04:21:12;;;;;;;35.42;18.10;;;14.40;99.90;;;;;;5088480;28;20040;-70
2022/05/26 04:23:39;;;;;;;36.90;17.95;;;14.40;99.90;;;;;;5087521;28;20044;-70
2022/05/26 04:26:06;;;;;;;35.03;16.77;;;14.40;99.90;;;;;;5086624;28;20078;-70
2022/05/26 04:28:32;;;;;;;28.88;16.00;;;14.40;99.90;;;;;;5091082;28;20117;-70
2022/05/26 04:30:58;;;;;;;35.33;16.92;;;14.40;99.90;;;;;;5089950;28;20086;-71
2022/05/26 04:33:24;;;;;;;37.40;16.75;;;14.50;99.90;;;;;;5089006;28;20050;-70
2022/05/26 04:35:50;;;;;;;34.35;15.98;;;14.40;99.90;;;;;;5096305;28;20031;-70
2022/05/26 04:38:16;;;;;;;33.72;14.60;;;14.50;99.90;;;;;;5095452;28;20304;-71
2022/05/26 04:40:43;;;;;;;33.20;14.27;;;14.50;99.90;;;;;;5090293;28;20040;-70
2022/05/26 04:43:10;;;;;;;38.80;14.15;;;14.50;99.90;;;;;;5098912;28;20051;-70
2022/05/26 04:45:36;;;;;;;30.07;14.10;;;14.50;99.90;;;;;;5091041;28;20046;-72
2022/05/26 04:48:02;;;;;;;33.20;14.00;;;14.50;99.90;;;;;;5089877;28;20086;-70
2022/05/26 04:50:28;;;;;;;38.58;13.55;;;14.50;99.90;;;;;;5091713;28;20047;-70
2022/05/26 04:52:54;;;;;;;34.05;12.43;;;14.50;99.90;;;;;;5092089;28;20395;-71
2022/05/26 04:55:20;;;;;;;32.13;12.88;;;14.50;99.90;;;;;;5087525;28;20044;-71
2022/05/26 04:57:47;;;;;;;32.75;12.60;;;14.60;99.90;;;;;;5091454;28;20106;-71
2022/05/26 05:00:16;;;;;;;33.28;11.95;;;14.60;99.90;;;;;;5103949;28;20048;-71
2022/05/26 05:02:42;;;;;;;31.65;12.15;;;14.60;99.90;;;;;;5092230;28;20054;-70
2022/05/26 05:05:09;;;;;;;29.70;11.23;;;14.60;99.90;;;;;;5087194;28;20048;-70
2022/05/26 05:07:35;;;;;;;30.23;11.00;;;14.70;99.90;;;;;;5090770;28;20048;-72
2022/05/26 05:10:00;;;;;;;26.70;9.27;;;14.70;99.90;;;;;;5101839;28;20101;-70
2022/05/26 05:12:26;;;;;;;25.05;9.35;;;14.70;99.90;;;;;;5087053;28;20050;-71
2022/05/26 05:14:55;;;;;;;20.42;7.28;;;14.80;99.90;;;;;;5089043;28;20085;-71
2022/05/26 05:17:22;;;;;;;20.67;5.95;;;14.90;99.90;;;;;;5087918;28;20426;-71
2022/05/26 05:19:49;;;;;;;18.08;5.72;;;14.90;99.90;;;;;;5087692;28;20553;-70
2022/05/26 05:22:25;;;;;;;18.75;5.45;;;14.90;99.90;;;;;;5089993;28;20437;-69
2022/05/26 05:24:59;;;;;;;10.95;3.25;;;15.00;99.90;;;;;;5088283;28;20439;-70
2022/05/26 05:28:02;;;;;;;15.50;4.07;;;15.00;99.90;;;;;;5086648;28;20487;-71
2022/05/26 05:30:51;;;;;;;13.15;3.08;;;15.00;99.90;;;;;;5086959;28;20075;-70
2022/05/26 05:33:31;;;;;;;12.63;3.20;;;15.10;99.90;;;;;;5075749;28;20044;-71
2022/05/26 05:36:09;;;;;;;11.95;2.55;;;15.20;99.90;;;;;;5088190;28;20518;-72
2022/05/26 05:38:38;;;;;;;11.52;2.42;;;15.20;99.90;;;;;;5084831;28;20123;-71
2022/05/26 05:41:05;;;;;;;7.53;2.00;;;15.30;99.90;;;;;;5068554;28;20049;-70
2022/05/26 05:43:33;;;;;;;9.50;2.53;;;15.30;99.90;;;;;;5079428;28;20051;-71
2022/05/26 05:45:58;;;;;;;;;;;15.30;99.90;;;;;;5088093;28;20043;-69
2022/05/26 05:48:24;;;;;;;10.90;2.90;;;15.20;99.90;;;;;;5083412;28;19924;-71
2022/05/26 05:50:51;;;;;;;9.50;2.35;;;15.20;99.90;;;;;;5085292;28;20513;-74
2022/05/26 05:53:17;;;;;;;9.53;3.00;;;15.30;99.90;;;;;;5074903;28;20923;-70
2022/05/26 05:55:42;;;;;;;10.25;2.50;;;15.30;99.90;;;;;;5091648;28;20347;-70
2022/05/26 05:58:09;;;;;;;10.43;2.40;;;15.40;99.90;;;;;;5107824;28;20047;-70
2022/05/26 06:00:36;;;;;;;8.80;2.30;;;15.40;99.90;;;;;;5084614;28;21087;-69
2022/05/26 06:03:03;;;;;;;13.57;2.63;;;15.40;99.90;;;;;;5109054;28;20124;-70
2022/05/26 06:05:28;;;;;;;10.80;2.80;;;15.40;99.90;;;;;;5087259;28;20294;-72
2022/05/26 06:07:54;;;;;;;14.57;3.22;;;15.50;99.90;;;;;;5081948;28;20298;-69
2022/05/26 06:10:20;;;;;;;11.50;3.05;;;15.50;99.90;;;;;;5093941;28;20087;-70
2022/05/26 06:12:48;;;;;;;12.48;3.05;;;15.50;99.90;;;;;;5086718;28;20221;-71
2022/05/26 06:15:14;;;;;;;12.63;2.90;;;15.50;99.90;;;;;;5073096;28;20075;-70
2022/05/26 06:17:40;;;;;;;14.68;3.20;;;15.50;99.90;;;;;;5084405;28;20410;-71
2022/05/26 06:20:07;;;;;;;10.02;2.58;;;15.50;99.90;;;;;;5088849;28;20035;-73
2022/05/26 06:22:35;;;;;;;10.57;2.83;;;15.50;99.90;;;;;;5080520;28;20376;-70
2022/05/26 06:25:03;;;;;;;10.07;2.72;;;15.60;99.90;;;;;;5085040;28;20478;-72
2022/05/26 06:30:15;;;;;;;9.55;2.75;;;15.70;99.90;;;;;;5085498;28;20051;-72
2022/05/26 06:38:20;;;;;;;8.98;1.90;;;16.00;99.90;;;;;;5088806;28;20048;-71
2022/05/26 06:40:46;;;;;;;6.53;1.60;;;16.10;99.90;;;;;;5087702;28;20059;-72
2022/05/26 06:43:14;;;;;;;7.05;1.60;;;16.10;99.90;;;;;;5086680;28;20040;-70
2022/05/26 06:45:40;;;;;;;6.45;1.60;;;16.20;99.90;;;;;;5088871;28;20047;-72
2022/05/26 06:48:07;;;;;;;7.30;2.15;;;16.30;99.90;;;;;;5087060;28;20044;-71
2022/05/26 06:50:33;;;;;;;7.30;1.58;;;16.30;99.90;;;;;;5087384;28;20063;-69
2022/05/26 06:52:58;;;;;;;8.13;1.35;;;16.30;99.90;;;;;;5097428;28;20048;-70
2022/05/26 06:55:24;;;;;;;4.45;1.23;;;16.40;99.90;;;;;;5087547;28;20514;-69
2022/05/26 06:57:50;;;;;;;7.82;1.50;;;16.40;99.90;;;;;;5082400;28;20441;-70
2022/05/26 07:00:16;;;;;;;6.65;1.40;;;16.40;99.90;;;;;;5088474;28;20047;-72
2022/05/26 07:02:42;;;;;;;6.03;1.40;;;16.50;99.90;;;;;;5087139;28;20090;-73
2022/05/26 07:05:09;;;;;;;7.50;1.75;;;16.50;99.90;;;;;;5093723;28;20044;-75
2022/05/26 07:07:35;;;;;;;7.22;1.63;;;16.60;99.90;;;;;;5099759;28;20048;-72
2022/05/26 07:10:02;;;;;;;8.88;1.25;;;16.60;99.90;;;;;;5089072;28;20040;-71
2022/05/26 07:12:28;;;;;;;5.55;1.27;;;16.80;99.90;;;;;;5089586;28;20063;-74
2022/05/26 07:14:54;;;;;;;10.27;1.55;;;16.80;99.90;;;;;;5101095;28;20074;-74
2022/05/26 07:17:19;;;;;;;6.05;1.63;;;16.90;99.90;;;;;;5103764;28;20436;-72
2022/05/26 07:19:46;;;;;;;6.68;1.20;;;16.90;99.90;;;;;;5108249;28;20096;-75
2022/05/26 07:22:13;;;;;;;6.00;1.40;;;16.90;99.90;;;;;;5100054;28;21923;-75
2022/05/26 07:24:40;;;;;;;5.18;1.15;;;16.90;99.90;;;;;;5107751;28;20043;-72
2022/05/26 07:27:06;;;;;;;8.10;1.43;;;17.00;99.90;;;;;;5109784;28;20132;-75
2022/05/26 07:29:32;;;;;;;5.65;1.10;;;16.90;99.90;;;;;;5093048;28;20476;-72
2022/05/26 07:31:59;;;;;;;4.43;1.05;;;17.00;99.90;;;;;;5100630;28;20044;-73
2022/05/26 07:34:25;;;;;;;4.35;1.20;;;16.90;99.90;;;;;;5085138;28;20510;-70
2022/05/26 07:42:22;;;;;;;4.28;1.20;;;16.90;99.90;;;;;;5109313;28;20135;-72
2022/05/26 07:44:50;;;;;;;6.43;1.40;;;16.90;99.90;;;;;;5109815;28;20055;-72
2022/05/26 07:47:16;;;;;;;8.40;1.55;;;16.90;99.90;;;;;;5083529;28;20039;-71
2022/05/26 07:49:47;;;;;;;6.32;1.10;;;16.90;99.90;;;;;;5104134;28;20118;-71
2022/05/26 07:52:14;;;;;;;5.40;1.55;;;16.90;99.90;;;;;;5093455;28;20074;-73
2022/05/26 07:54:41;;;;;;;6.05;1.10;;;17.00;99.90;;;;;;5090152;28;20036;-72
2022/05/26 07:57:18;;;;;;;4.43;1.10;;;17.00;99.90;;;;;;5103652;28;20040;-72
2022/05/26 07:59:44;;;;;;;4.93;1.00;;;17.00;99.90;;;;;;5104071;28;20169;-71
2022/05/26 08:02:09;;;;;;;4.82;0.90;;;17.10;99.90;;;;;;5086860;28;20063;-74
2022/05/26 08:04:35;;;;;;;6.85;1.38;;;17.20;99.90;;;;;;5094500;28;20040;-72
2022/05/26 08:07:02;;;;;;;3.15;1.00;;;17.20;99.90;;;;;;5092963;28;20116;-70
2022/05/26 08:09:28;;;;;;;3.60;1.17;;;17.30;99.90;;;;;;5091254;28;20174;-71
2022/05/26 08:11:53;;;;;;;6.85;1.20;;;17.30;99.90;;;;;;5084096;28;20126;-71
2022/05/26 08:14:19;;;;;;;3.10;1.20;;;17.40;99.90;;;;;;5102728;28;20063;-73
2022/05/26 08:16:45;;;;;;;5.05;1.50;;;17.50;99.90;;;;;;5109190;28;20032;-71
2022/05/26 08:19:10;;;;;;;5.72;1.10;;;17.60;99.90;;;;;;5103089;28;20096;-70
2022/05/26 08:21:36;;;;;;;4.22;1.30;;;17.60;99.90;;;;;;5093397;28;20630;-71
2022/05/26 08:24:03;;;;;;;6.95;1.30;;;17.80;99.90;;;;;;5092570;28;20043;-70
2022/05/26 08:26:30;;;;;;;4.65;1.20;;;17.90;99.90;;;;;;5091414;28;20116;-70
2022/05/26 08:28:56;;;;;;;5.82;1.00;;;17.90;99.90;;;;;;5104047;28;20057;-70
2022/05/26 08:31:23;;;;;;;6.18;1.08;;;17.90;99.90;;;;;;5104103;28;20071;-70
2022/05/26 08:33:50;;;;;;;4.22;0.90;;;17.80;99.90;;;;;;5100732;28;20506;-70
2022/05/26 08:36:20;;;;;;;3.85;0.80;;;17.80;99.90;;;;;;5111204;28;20482;-71
2022/05/26 08:38:46;;;;;;;4.68;0.95;;;17.80;99.90;;;;;;5107976;28;20039;-71
2022/05/26 08:41:19;;;;;;;4.38;1.08;;;17.70;99.90;;;;;;5094089;28;20375;-71
2022/05/26 08:44:11;;;;;;;4.47;1.10;;;17.60;99.90;;;;;;5071539;28;20079;-71
2022/05/26 08:46:47;;;;;;;4.97;1.35;;;17.60;99.90;;;;;;5071587;28;20049;-72
2022/05/26 08:49:21;;;;;;;4.53;0.80;;;17.60;99.90;;;;;;5084830;28;20052;-73
2022/05/26 08:51:49;;;;;;;3.17;1.00;;;17.70;99.90;;;;;;5101245;28;20040;-74
2022/05/26 08:54:30;;;;;;;3.38;0.80;;;17.70;99.90;;;;;;5108388;28;20051;-74
2022/05/26 08:56:59;;;;;;;3.70;1.25;;;17.80;99.90;;;;;;5100255;28;20046;-74
2022/05/26 08:59:34;;;;;;;4.95;1.35;;;17.90;99.90;;;;;;5095640;28;20380;-72
2022/05/26 09:02:01;;;;;;;5.90;1.23;;;18.00;99.90;;;;;;5091786;28;20051;-71
2022/05/26 09:04:28;;;;;;;6.07;1.35;;;18.00;99.90;;;;;;5103098;28;20120;-71
2022/05/26 09:15:20;;;;;;;4.78;1.00;;;17.80;99.90;;;;;;5070553;28;20101;-81
2022/05/26 09:17:45;;;;;;;4.13;1.08;;;17.90;99.90;;;;;;5069729;28;20048;-71
2022/05/26 09:20:44;;;;;;;4.82;0.80;;;17.90;99.90;;;;;;5074417;28;20047;-72
2022/05/26 09:23:29;;;;;;;3.80;0.90;;;17.90;99.90;;;;;;5098838;28;20043;-73
2022/05/26 09:26:06;;;;;;;3.47;0.70;;;17.90;99.90;;;;;;5078655;28;20572;-72
2022/05/26 09:28:41;;;;;;;4.40;0.93;;;17.80;99.90;;;;;;5099947;28;20349;-72
2022/05/26 09:31:18;;;;;;;2.95;0.73;;;17.80;99.90;;;;;;5111013;28;20047;-76
2022/05/26 09:33:44;;;;;;;4.47;0.90;;;17.90;99.90;;;;;;5103988;28;20047;-75
2022/05/26 09:36:25;;;;;;;5.30;0.93;;;18.00;99.90;;;;;;5105191;28;20043;-73
2022/05/26 09:38:51;;;;;;;5.80;1.23;;;18.30;99.90;;;;;;5085361;28;20498;-73
2022/05/26 09:41:17;;;;;;;4.60;1.00;;;18.40;99.90;;;;;;5093557;28;20475;-72
2022/05/26 09:43:53;;;;;;;5.78;1.05;;;18.50;99.90;;;;;;5098789;28;20040;-73
2022/05/26 09:46:23;;;;;;;9.88;1.13;;;18.60;99.90;;;;;;5104990;28;20058;-71
2022/05/26 09:48:52;;;;;;;4.53;1.00;;;18.70;99.90;;;;;;5105455;28;20040;-71
2022/05/26 09:51:25;;;;;;;5.80;1.20;;;18.70;99.90;;;;;;5091874;28;20407;-72
2022/05/26 09:53:52;;;;;;;5.20;0.95;;;18.70;99.90;;;;;;5087463;28;20039;-73
2022/05/26 09:56:40;;;;;;;5.75;1.25;;;18.70;99.90;;;;;;5086035;28;20445;-72
2022/05/26 09:59:38;;;;;;;3.90;1.00;;;18.70;99.90;;;;;;5087234;28;20044;-75
2022/05/26 10:02:23;;;;;;;4.25;1.13;;;18.80;99.90;;;;;;5079959;28;20128;-74
2022/05/26 10:05:16;;;;;;;7.38;1.23;;;18.80;99.90;;;;;;5086711;28;20606;-75
2022/05/26 10:07:47;;;;;;;4.97;1.13;;;18.80;99.90;;;;;;5039094;28;20055;-72
2022/05/26 10:10:29;;;;;;;2.00;0.80;;;18.70;99.90;;;;;;5094526;28;20044;-70
2022/05/26 10:13:20;;;;;;;6.82;1.00;;;18.70;99.90;;;;;;5079453;28;20047;-72
2022/05/26 10:16:11;;;;;;;4.68;1.05;;;18.60;99.90;;;;;;5087199;28;20395;-71
2022/05/26 10:18:54;;;;;;;4.25;0.80;;;18.70;99.90;;;;;;5091720;28;20528;-79
2022/05/26 10:21:50;;;;;;;4.28;0.93;;;18.90;99.90;;;;;;5104078;28;20459;-74
2022/05/26 10:24:40;;;;;;;1.88;0.63;;;18.90;99.90;;;;;;5097125;28;20046;-73
2022/05/26 10:27:51;;;;;;;5.40;0.95;;;18.80;99.90;;;;;;5075151;28;20407;-72
2022/05/26 10:30:57;;;;;;;2.30;0.70;;;18.80;99.90;;;;;;5064464;28;20066;-72
2022/05/26 10:33:28;;;;;;;3.55;1.00;;;19.00;99.90;;;;;;5087636;28;20048;-73
2022/05/26 10:36:15;;;;;;;3.28;0.98;;;19.00;99.90;;;;;;5068002;28;20054;-72
2022/05/26 10:39:01;;;;;;;4.47;1.00;;;19.10;99.90;;;;;;5084346;28;20502;-72
2022/05/26 10:41:33;;;;;;;;;;;19.00;99.90;;;;;;5073619;28;20043;-71
2022/05/26 10:44:13;;;;;;;3.95;1.00;;;18.90;99.90;;;;;;5103316;28;20021;-72
2022/05/26 10:46:50;;;;;;;6.40;1.42;;;18.90;99.90;;;;;;5087240;28;20395;-70
2022/05/26 10:49:28;;;;;;;3.38;1.30;;;18.80;99.90;;;;;;5096268;28;20047;-70
2022/05/26 10:52:32;;;;;;;4.97;1.25;;;18.70;99.90;;;;;;5088067;28;20054;-71
2022/05/26 10:55:09;;;;;;;3.45;0.90;;;18.70;99.90;;;;;;5022480;28;20440;-73
2022/05/26 10:57:53;;;;;;;3.05;1.33;;;18.70;99.90;;;;;;5070329;28;20055;-72
2022/05/26 11:00:23;;;;;;;6.65;1.65;;;18.60;99.90;;;;;;5089131;28;20058;-72
2022/05/26 11:03:09;;;;;;;3.83;1.30;;;18.50;99.90;;;;;;5104427;28;20059;-72
2022/05/26 11:05:41;;;;;;;5.13;1.30;;;18.30;99.90;;;;;;5094671;28;20052;-70
2022/05/26 11:08:22;;;;;;;8.05;1.65;;;18.40;99.90;;;;;;5087656;28;20052;-71
2022/05/26 11:10:53;;;;;;;4.15;1.27;;;18.50;99.90;;;;;;5081824;28;20066;-70
2022/05/26 11:13:51;;;;;;;5.60;1.30;;;18.60;99.90;;;;;;5088167;28;20097;-71
2022/05/26 11:19:29;;;;;;;4.55;1.45;;;18.60;99.90;;;;;;5106433;28;20546;-70
2022/05/26 11:21:55;;;;;;;7.00;1.65;;;18.50;99.90;;;;;;5089625;28;20131;-71
2022/05/26 11:24:23;;;;;;;6.53;1.50;;;18.40;99.90;;;;;;5086222;28;20036;-71
2022/05/26 11:27:07;;;;;;;6.05;1.50;;;18.40;99.90;;;;;;5086838;28;20054;-69
2022/05/26 11:29:44;;;;;;;4.32;1.42;;;18.50;99.90;;;;;;5068450;28;20048;-69
2022/05/26 11:36:07;;;;;;;4.82;1.63;;;18.80;99.90;;;;;;5096234;28;20118;-71
2022/05/26 11:38:16;;;;;;;4.95;1.60;;;19.20;99.90;;;;;;5107649;28;20592;-71
2022/05/26 11:40:44;;;;;;;5.95;1.80;;;19.30;99.90;;;;;;5105319;28;20150;-70
2022/05/26 11:43:10;;;;;;;4.95;1.75;;;19.30;99.90;;;;;;5093761;28;20105;-72
2022/05/26 11:45:48;;;;;;;4.88;1.52;;;19.30;99.90;;;;;;5085628;28;20052;-70
2022/05/26 11:48:33;;;;;;;6.43;1.70;;;19.40;99.90;;;;;;5087967;28;20496;-70
2022/05/26 11:50:58;;;;;;;5.43;1.60;;;19.50;99.90;;;;;;5087868;28;20040;-72
2022/05/26 11:53:33;;;;;;;5.30;1.63;;;19.50;99.90;;;;;;5085983;28;20063;-72
2022/05/26 11:56:04;;;;;;;6.97;1.80;;;19.50;99.90;;;;;;5088102;28;20470;-69
2022/05/26 11:58:41;;;;;;;5.75;1.80;;;19.30;99.90;;;;;;5088366;28;20059;-70
2022/05/26 12:01:19;;;;;;;4.15;1.30;;;19.30;99.90;;;;;;5091042;28;20131;-71
2022/05/26 12:03:54;;;;;;;6.32;1.55;;;19.40;99.90;;;;;;5091682;28;20039;-71
2022/05/26 12:06:52;;;;;;;4.63;1.60;;;19.60;99.90;;;;;;5098778;28;20043;-72
2022/05/26 12:09:44;;;;;;;7.55;1.83;;;19.80;99.90;;;;;;5088096;28;20059;-71
2022/05/26 12:12:15;;;;;;;7.03;1.50;;;19.60;99.90;;;;;;5094928;28;20134;-73
2022/05/26 12:15:07;;;;;;;4.55;1.35;;;19.60;99.90;;;;;;5095892;28;20097;-71
2022/05/26 12:17:49;;;;;;;5.88;1.50;;;19.70;99.90;;;;;;5102911;28;20039;-74
2022/05/26 12:20:15;;;;;;;5.60;1.98;;;19.90;99.90;;;;;;5094351;28;20043;-71
2022/05/26 12:22:49;;;;;;;5.50;1.40;;;19.90;99.90;;;;;;5096760;28;20043;-71
2022/05/26 12:25:23;;;;;;;5.90;1.50;;;19.80;99.90;;;;;;5108132;28;20032;-72
2022/05/26 12:27:49;;;;;;;7.22;1.67;;;19.90;99.90;;;;;;5087817;28;20047;-75
2022/05/26 12:30:39;;;;;;;7.45;1.50;;;20.00;99.90;;;;;;5087299;28;20395;-72
2022/05/26 12:33:20;;;;;;;5.22;1.48;;;20.10;99.90;;;;;;5084831;28;20633;-72
2022/05/26 12:36:20;;;;;;;5.70;1.30;;;20.00;99.90;;;;;;5094276;28;20392;-76
2022/05/26 12:38:55;;;;;;;6.93;1.52;;;19.90;99.90;;;;;;5090482;28;20071;-73
2022/05/26 12:41:44;;;;;;;5.50;1.42;;;19.70;99.90;;;;;;5089411;28;20093;-74
2022/05/26 12:44:23;;;;;;;5.65;1.63;;;19.70;99.90;;;;;;5094426;28;20157;-71
2022/05/26 12:47:20;;;;;;;6.13;1.70;;;19.70;99.90;;;;;;5071577;28;20044;-72
2022/05/26 12:50:14;;;;;;;7.03;2.03;;;19.70;99.90;;;;;;5096770;28;20479;-75
2022/05/26 12:52:44;;;;;;;8.65;1.30;;;19.60;99.90;;;;;;5098796;28;20052;-76
2022/05/26 12:55:28;;;;;;;6.43;2.03;;;19.50;99.90;;;;;;5095983;28;20059;-72
2022/05/26 12:58:06;;;;;;;4.53;1.17;;;19.60;99.90;;;;;;5106884;28;20502;-70
2022/05/26 13:00:38;;;;;;;7.53;1.67;;;19.70;99.90;;;;;;5107042;28;20577;-73
2022/05/26 13:03:13;;;;;;;6.18;1.58;;;19.80;99.90;;;;;;5111067;28;20047;-72
2022/05/26 13:05:46;;;;;;;8.95;1.80;;;19.80;99.90;;;;;;5111642;27;20538;-70
2022/05/26 13:08:19;;;;;;;6.10;1.15;;;19.70;99.90;;;;;;5108476;28;20046;-71
2022/05/26 13:10:45;;;;;;;6.32;1.45;;;19.60;99.40;;;;;;5110452;28;20043;-71
2022/05/26 13:13:28;;;;;;;8.65;1.45;;;19.60;99.90;;;;;;5111660;28;20127;-71
2022/05/26 13:15:53;;;;;;;4.65;1.30;;;19.70;99.90;;;;;;5096772;28;20047;-71
2022/05/26 13:18:21;;;;;;;6.57;1.33;;;19.90;99.90;;;;;;5103184;28;20067;-71
2022/05/26 13:20:48;;;;;;;5.28;1.25;;;20.10;99.90;;;;;;5111449;28;20487;-71
2022/05/26 13:23:27;;;;;;;4.22;1.23;;;20.30;99.20;;;;;;5102941;28;20047;-72
2022/05/26 13:25:54;;;;;;;9.43;1.85;;;20.40;98.10;;;;;;5104228;28;20062;-71
2022/05/26 13:28:27;;;;;;;5.03;1.90;;;20.40;98.50;;;;;;5090436;28;20052;-72
2022/05/26 13:33:49;;;;;;;5.18;1.40;;;20.30;99.10;;;;;;5086686;28;21017;-69
2022/05/26 13:36:24;;;;;;;4.88;1.45;;;20.30;99.80;;;;;;5093882;28;20047;-71
2022/05/26 13:38:51;;;;;;;5.78;1.20;;;20.40;99.90;;;;;;5095503;28;20039;-75
2022/05/26 13:41:25;;;;;;;5.65;1.30;;;20.50;99.90;;;;;;5102693;28;20039;-72
2022/05/26 13:43:52;;;;;;;8.15;2.53;;;20.50;99.90;;;;;;5105967;28;20055;-76
2022/05/26 13:46:41;;;;;;;10.27;1.60;;;20.50;98.60;;;;;;5108775;28;20118;-73
2022/05/26 13:49:26;;;;;;;7.60;1.35;;;20.40;96.80;;;;;;5106192;28;20131;-74